sensor_id;sensor_type;location;lat;lon;timestamp;temperature;humidity
18444;DHT22;9350;53.176;8.194;2023-03-01T00:01:01;1.00;99.90
18444;DHT22;9350;53.176;8.194;2023-03-01T00:03:28;1.00;99.90
18444;DHT22;9350;53.176;8.194;2023-03-01T00:05:54;0.90;99.90
18444;DHT22;9350;53.176;8.194;2023-03-01T00:08:21;1.00;99.90
18444;DHT22;9350;53.176;8.194;2023-03-01T00:10:48;0.90;99.90
18444;DHT22;9350;53.176;8.194;2023-03-01T00:13:16;0.90;99.90
18444;DHT22;9350;53.176;8.194;2023-03-01T00:15:43;0.80;99.90
18444;DHT22;9350;53.176;8.194;2023-03-01T00:18:09;0.80;99.90
18444;DHT22;9350;53.176;8.194;2023-03-01T00:20:36;0.80;99.90
18444;DHT22;9350;53.176;8.194;2023-03-01T00:23:03;0.80;99.90
18444;DHT22;9350;53.176;8.194;2023-03-01T00:25:29;0.80;99.90
18444;DHT22;9350;53.176;8.194;2023-03-01T00:27:56;0.80;99.90
18444;DHT22;9350;53.176;8.194;2023-03-01T00:30:24;0.80;99.90
18444;DHT22;9350;53.176;8.194;2023-03-01T00:32:51;0.80;99.90
18444;DHT22;9350;53.176;8.194;2023-03-01T00:35:17;0.70;99.90
18444;DHT22;9350;53.176;8.194;2023-03-01T00:37:44;0.70;99.90
18444;DHT22;9350;53.176;8.194;2023-03-01T00:40:12;0.70;99.90
18444;DHT22;9350;53.176;8.194;2023-03-01T00:42:39;0.80;99.90
18444;DHT22;9350;53.176;8.194;2023-03-01T00:45:07;0.70;99.90
18444;DHT22;9350;53.176;8.194;2023-03-01T00:47:35;0.70;99.90
18444;DHT22;9350;53.176;8.194;2023-03-01T00:50:02;0.70;99.90
18444;DHT22;9350;53.176;8.194;2023-03-01T00:52:29;0.70;99.90
18444;DHT22;9350;53.176;8.194;2023-03-01T00:54:56;0.70;99.90
18444;DHT22;9350;53.176;8.194;2023-03-01T00:57:23;0.70;99.90
18444;DHT22;9350;53.176;8.194;2023-03-01T00:59:49;0.70;99.90
18444;DHT22;9350;53.176;8.194;2023-03-01T01:02:18;0.60;99.90
18444;DHT22;9350;53.176;8.194;2023-03-01T01:04:46;0.60;99.90
18444;DHT22;9350;53.176;8.194;2023-03-01T01:07:13;0.60;99.90
18444;DHT22;9350;53.176;8.194;2023-03-01T01:09:40;0.60;99.90
18444;DHT22;9350;53.176;8.194;2023-03-01T01:12:07;0.50;99.90
18444;DHT22;9350;53.176;8.194;2023-03-01T01:14:34;0.50;99.90
18444;DHT22;9350;53.176;8.194;2023-03-01T01:17:01;0.50;99.90
18444;DHT22;9350;53.176;8.194;2023-03-01T01:19:28;0.50;99.90
18444;DHT22;9350;53.176;8.194;2023-03-01T01:21:56;0.50;99.90
18444;DHT22;9350;53.176;8.194;2023-03-01T01:24:23;0.50;99.90
18444;DHT22;9350;53.176;8.194;2023-03-01T01:26:49;0.50;99.90
18444;DHT22;9350;53.176;8.194;2023-03-01T01:29:16;0.40;99.90
18444;DHT22;9350;53.176;8.194;2023-03-01T01:31:43;0.50;99.90
18444;DHT22;9350;53.176;8.194;2023-03-01T01:34:14;0.40;99.90
18444;DHT22;9350;53.176;8.194;2023-03-01T01:36:41;0.40;99.90
18444;DHT22;9350;53.176;8.194;2023-03-01T01:39:10;0.40;99.90
18444;DHT22;9350;53.176;8.194;2023-03-01T01:41:39;0.40;99.90
18444;DHT22;9350;53.176;8.194;2023-03-01T01:44:15;0.30;99.90
18444;DHT22;9350;53.176;8.194;2023-03-01T01:46:45;0.40;99.90
18444;DHT22;9350;53.176;8.194;2023-03-01T01:49:19;0.40;99.90
18444;DHT22;9350;53.176;8.194;2023-03-01T01:51:49;0.40;99.90
18444;DHT22;9350;53.176;8.194;2023-03-01T01:54:20;0.40;99.90
18444;DHT22;9350;53.176;8.194;2023-03-01T01:56:51;0.30;99.90
18444;DHT22;9350;53.176;8.194;2023-03-01T01:59:19;0.40;99.90
18444;DHT22;9350;53.176;8.194;2023-03-01T02:01:50;0.30;99.90
18444;DHT22;9350;53.176;8.194;2023-03-01T02:04:16;0.20;99.90
18444;DHT22;9350;53.176;8.194;2023-03-01T02:06:48;0.30;99.90
18444;DHT22;9350;53.176;8.194;2023-03-01T02:09:20;0.30;99.90
18444;DHT22;9350;53.176;8.194;2023-03-01T02:11:48;0.20;99.90
18444;DHT22;9350;53.176;8.194;2023-03-01T02:14:16;0.20;99.90
18444;DHT22;9350;53.176;8.194;2023-03-01T02:16:44;0.20;99.90
18444;DHT22;9350;53.176;8.194;2023-03-01T02:19:17;0.10;99.90
18444;DHT22;9350;53.176;8.194;2023-03-01T02:21:52;0.10;99.90
18444;DHT22;9350;53.176;8.194;2023-03-01T02:24:29;0.10;99.90
18444;DHT22;9350;53.176;8.194;2023-03-01T02:27:00;0.10;99.90
18444;DHT22;9350;53.176;8.194;2023-03-01T02:29:28;0.20;99.90
18444;DHT22;9350;53.176;8.194;2023-03-01T02:31:57;0.10;99.90
18444;DHT22;9350;53.176;8.194;2023-03-01T02:34:25;0.20;99.90
18444;DHT22;9350;53.176;8.194;2023-03-01T02:36:55;0.10;99.90
18444;DHT22;9350;53.176;8.194;2023-03-01T02:39:26;0.30;99.90
18444;DHT22;9350;53.176;8.194;2023-03-01T02:41:55;0.10;99.90
18444;DHT22;9350;53.176;8.194;2023-03-01T02:44:22;0.10;99.90
18444;DHT22;9350;53.176;8.194;2023-03-01T02:46:52;0.00;99.90
18444;DHT22;9350;53.176;8.194;2023-03-01T02:49:22;0.00;99.90
18444;DHT22;9350;53.176;8.194;2023-03-01T02:52:00;-0.10;99.90
18444;DHT22;9350;53.176;8.194;2023-03-01T02:54:34;0.00;99.90
18444;DHT22;9350;53.176;8.194;2023-03-01T02:57:03;-0.10;99.90
18444;DHT22;9350;53.176;8.194;2023-03-01T02:59:32;-0.10;99.90
18444;DHT22;9350;53.176;8.194;2023-03-01T03:02:06;-0.10;99.90
18444;DHT22;9350;53.176;8.194;2023-03-01T03:04:32;-0.10;99.90
18444;DHT22;9350;53.176;8.194;2023-03-01T03:06:59;-0.10;99.90
18444;DHT22;9350;53.176;8.194;2023-03-01T03:09:26;-0.10;99.90
18444;DHT22;9350;53.176;8.194;2023-03-01T03:11:53;-0.10;99.90
18444;DHT22;9350;53.176;8.194;2023-03-01T03:14:20;-0.10;99.90
18444;DHT22;9350;53.176;8.194;2023-03-01T03:16:49;-0.10;99.90
18444;DHT22;9350;53.176;8.194;2023-03-01T03:19:18;-0.20;99.90
18444;DHT22;9350;53.176;8.194;2023-03-01T03:21:45;-0.20;99.90
18444;DHT22;9350;53.176;8.194;2023-03-01T03:24:12;-0.20;99.90
18444;DHT22;9350;53.176;8.194;2023-03-01T03:26:39;-0.20;99.90
18444;DHT22;9350;53.176;8.194;2023-03-01T03:29:05;-0.30;99.90
18444;DHT22;9350;53.176;8.194;2023-03-01T03:31:32;-0.20;99.90
18444;DHT22;9350;53.176;8.194;2023-03-01T03:34:00;-0.30;99.90
18444;DHT22;9350;53.176;8.194;2023-03-01T03:36:28;-0.30;99.90
18444;DHT22;9350;53.176;8.194;2023-03-01T03:38:54;-0.30;99.90
18444;DHT22;9350;53.176;8.194;2023-03-01T03:41:21;-0.30;99.90
18444;DHT22;9350;53.176;8.194;2023-03-01T03:43:48;-0.30;99.90
18444;DHT22;9350;53.176;8.194;2023-03-01T03:46:14;-0.30;99.90
18444;DHT22;9350;53.176;8.194;2023-03-01T03:48:44;-0.30;99.90
18444;DHT22;9350;53.176;8.194;2023-03-01T03:51:12;-0.40;99.90
18444;DHT22;9350;53.176;8.194;2023-03-01T03:53:40;-0.40;99.90
18444;DHT22;9350;53.176;8.194;2023-03-01T03:56:08;-0.40;99.90
18444;DHT22;9350;53.176;8.194;2023-03-01T03:58:34;-0.40;99.90
18444;DHT22;9350;53.176;8.194;2023-03-01T04:01:01;-0.30;99.90
18444;DHT22;9350;53.176;8.194;2023-03-01T04:03:29;-0.40;99.90
18444;DHT22;9350;53.176;8.194;2023-03-01T04:05:57;-0.50;99.90
18444;DHT22;9350;53.176;8.194;2023-03-01T04:08:25;-0.50;99.90
18444;DHT22;9350;53.176;8.194;2023-03-01T04:10:58;-0.60;99.90
18444;DHT22;9350;53.176;8.194;2023-03-01T04:13:25;-0.40;99.90
18444;DHT22;9350;53.176;8.194;2023-03-01T04:15:53;-0.40;99.90
18444;DHT22;9350;53.176;8.194;2023-03-01T04:18:21;-0.50;99.90
18444;DHT22;9350;53.176;8.194;2023-03-01T04:20:48;-0.60;99.90
18444;DHT22;9350;53.176;8.194;2023-03-01T04:23:18;-0.60;99.90
18444;DHT22;9350;53.176;8.194;2023-03-01T04:25:47;-0.60;99.90
18444;DHT22;9350;53.176;8.194;2023-03-01T04:28:20;-0.70;99.90
18444;DHT22;9350;53.176;8.194;2023-03-01T04:30:47;-0.60;99.90
18444;DHT22;9350;53.176;8.194;2023-03-01T04:33:14;-0.60;99.90
18444;DHT22;9350;53.176;8.194;2023-03-01T04:35:40;-0.60;99.90
18444;DHT22;9350;53.176;8.194;2023-03-01T04:38:08;-0.60;99.90
18444;DHT22;9350;53.176;8.194;2023-03-01T04:40:35;-0.60;99.90
18444;DHT22;9350;53.176;8.194;2023-03-01T04:43:03;-0.60;99.90
18444;DHT22;9350;53.176;8.194;2023-03-01T04:45:31;-0.60;99.90
18444;DHT22;9350;53.176;8.194;2023-03-01T04:47:59;-0.60;99.90
18444;DHT22;9350;53.176;8.194;2023-03-01T04:50:26;-0.50;99.90
18444;DHT22;9350;53.176;8.194;2023-03-01T04:52:53;-0.50;99.90
18444;DHT22;9350;53.176;8.194;2023-03-01T04:55:20;-0.60;99.90
18444;DHT22;9350;53.176;8.194;2023-03-01T04:57:46;-0.60;99.90
18444;DHT22;9350;53.176;8.194;2023-03-01T05:00:15;-0.60;99.90
18444;DHT22;9350;53.176;8.194;2023-03-01T05:02:51;-0.70;99.90
18444;DHT22;9350;53.176;8.194;2023-03-01T05:05:21;-0.70;99.90
18444;DHT22;9350;53.176;8.194;2023-03-01T05:07:51;-0.60;99.90
18444;DHT22;9350;53.176;8.194;2023-03-01T05:10:18;-0.70;99.90
18444;DHT22;9350;53.176;8.194;2023-03-01T05:12:45;-0.70;99.90
18444;DHT22;9350;53.176;8.194;2023-03-01T05:15:12;-0.80;99.90
18444;DHT22;9350;53.176;8.194;2023-03-01T05:17:39;-0.80;99.90
18444;DHT22;9350;53.176;8.194;2023-03-01T05:20:09;-0.80;99.90
18444;DHT22;9350;53.176;8.194;2023-03-01T05:22:36;-0.70;99.90
18444;DHT22;9350;53.176;8.194;2023-03-01T05:25:04;-0.80;99.90
18444;DHT22;9350;53.176;8.194;2023-03-01T05:27:31;-0.90;99.90
18444;DHT22;9350;53.176;8.194;2023-03-01T05:29:58;-0.70;99.90
18444;DHT22;9350;53.176;8.194;2023-03-01T05:32:25;-0.80;99.90
18444;DHT22;9350;53.176;8.194;2023-03-01T05:34:51;-0.80;99.90
18444;DHT22;9350;53.176;8.194;2023-03-01T05:37:21;-0.70;99.90
18444;DHT22;9350;53.176;8.194;2023-03-01T05:39:47;-0.70;99.90
18444;DHT22;9350;53.176;8.194;2023-03-01T05:42:15;-0.70;99.90
18444;DHT22;9350;53.176;8.194;2023-03-01T05:44:42;-0.70;99.90
18444;DHT22;9350;53.176;8.194;2023-03-01T05:47:09;-0.80;99.90
18444;DHT22;9350;53.176;8.194;2023-03-01T05:49:35;-0.80;99.90
18444;DHT22;9350;53.176;8.194;2023-03-01T05:52:02;-0.80;99.90
18444;DHT22;9350;53.176;8.194;2023-03-01T05:54:30;-0.90;99.90
18444;DHT22;9350;53.176;8.194;2023-03-01T05:56:57;-0.90;99.90
18444;DHT22;9350;53.176;8.194;2023-03-01T05:59:24;-0.90;99.90
18444;DHT22;9350;53.176;8.194;2023-03-01T06:01:50;-0.90;99.90
18444;DHT22;9350;53.176;8.194;2023-03-01T06:04:17;-0.90;99.90
18444;DHT22;9350;53.176;8.194;2023-03-01T06:06:44;-0.90;99.90
18444;DHT22;9350;53.176;8.194;2023-03-01T06:09:10;-0.90;99.90
18444;DHT22;9350;53.176;8.194;2023-03-01T06:11:38;-1.00;99.90
18444;DHT22;9350;53.176;8.194;2023-03-01T06:14:06;-1.00;99.90
18444;DHT22;9350;53.176;8.194;2023-03-01T06:16:35;-1.00;99.90
18444;DHT22;9350;53.176;8.194;2023-03-01T06:19:02;-1.10;99.90
18444;DHT22;9350;53.176;8.194;2023-03-01T06:21:29;-1.10;99.90
18444;DHT22;9350;53.176;8.194;2023-03-01T06:23:55;-1.10;99.90
18444;DHT22;9350;53.176;8.194;2023-03-01T06:26:22;-1.10;99.90
18444;DHT22;9350;53.176;8.194;2023-03-01T06:28:50;-1.00;99.90
18444;DHT22;9350;53.176;8.194;2023-03-01T06:31:17;-1.10;99.90
18444;DHT22;9350;53.176;8.194;2023-03-01T06:33:43;-1.10;99.90
18444;DHT22;9350;53.176;8.194;2023-03-01T06:36:11;-1.10;99.90
18444;DHT22;9350;53.176;8.194;2023-03-01T06:38:37;-0.90;99.90
18444;DHT22;9350;53.176;8.194;2023-03-01T06:41:06;-1.00;99.90
18444;DHT22;9350;53.176;8.194;2023-03-01T06:43:33;-0.90;99.90
18444;DHT22;9350;53.176;8.194;2023-03-01T06:46:03;-0.90;99.90
18444;DHT22;9350;53.176;8.194;2023-03-01T06:48:30;-0.90;99.90
18444;DHT22;9350;53.176;8.194;2023-03-01T06:50:58;-0.80;99.90
18444;DHT22;9350;53.176;8.194;2023-03-01T06:53:26;-0.80;99.90
18444;DHT22;9350;53.176;8.194;2023-03-01T06:55:54;-0.80;99.90
18444;DHT22;9350;53.176;8.194;2023-03-01T06:58:21;-0.70;99.90
18444;DHT22;9350;53.176;8.194;2023-03-01T07:00:48;-0.70;99.90
18444;DHT22;9350;53.176;8.194;2023-03-01T07:03:16;-0.70;99.90
18444;DHT22;9350;53.176;8.194;2023-03-01T07:05:43;-0.60;99.90
18444;DHT22;9350;53.176;8.194;2023-03-01T07:08:10;-0.60;99.90
18444;DHT22;9350;53.176;8.194;2023-03-01T07:10:36;-0.60;99.90
18444;DHT22;9350;53.176;8.194;2023-03-01T07:13:03;-0.60;99.90
18444;DHT22;9350;53.176;8.194;2023-03-01T07:15:32;-0.50;99.90
18444;DHT22;9350;53.176;8.194;2023-03-01T07:17:59;-0.60;99.90
18444;DHT22;9350;53.176;8.194;2023-03-01T07:20:27;-0.60;99.90
18444;DHT22;9350;53.176;8.194;2023-03-01T07:22:54;-0.40;99.90
18444;DHT22;9350;53.176;8.194;2023-03-01T07:25:21;-0.50;99.90
18444;DHT22;9350;53.176;8.194;2023-03-01T07:27:49;-0.40;99.90
18444;DHT22;9350;53.176;8.194;2023-03-01T07:30:17;-0.30;99.90
18444;DHT22;9350;53.176;8.194;2023-03-01T07:32:43;-0.30;99.90
18444;DHT22;9350;53.176;8.194;2023-03-01T07:35:10;-0.20;99.90
18444;DHT22;9350;53.176;8.194;2023-03-01T07:37:38;-0.10;99.90
18444;DHT22;9350;53.176;8.194;2023-03-01T07:40:07;-0.20;99.90
18444;DHT22;9350;53.176;8.194;2023-03-01T07:42:34;-0.10;99.90
18444;DHT22;9350;53.176;8.194;2023-03-01T07:45:00;-0.10;99.90
18444;DHT22;9350;53.176;8.194;2023-03-01T07:47:27;0.00;99.90
18444;DHT22;9350;53.176;8.194;2023-03-01T07:49:54;0.10;99.90
18444;DHT22;9350;53.176;8.194;2023-03-01T07:52:20;0.10;99.90
18444;DHT22;9350;53.176;8.194;2023-03-01T07:54:48;0.20;99.90
18444;DHT22;9350;53.176;8.194;2023-03-01T07:57:15;0.20;99.90
18444;DHT22;9350;53.176;8.194;2023-03-01T07:59:42;0.20;99.90
18444;DHT22;9350;53.176;8.194;2023-03-01T08:02:09;0.30;99.90
18444;DHT22;9350;53.176;8.194;2023-03-01T08:04:36;0.40;99.90
18444;DHT22;9350;53.176;8.194;2023-03-01T08:07:05;0.40;99.90
18444;DHT22;9350;53.176;8.194;2023-03-01T08:09:33;0.40;99.90
18444;DHT22;9350;53.176;8.194;2023-03-01T08:12:01;0.40;99.90
18444;DHT22;9350;53.176;8.194;2023-03-01T08:14:30;0.50;99.90
18444;DHT22;9350;53.176;8.194;2023-03-01T08:16:56;0.50;99.90
18444;DHT22;9350;53.176;8.194;2023-03-01T08:19:23;0.50;99.90
18444;DHT22;9350;53.176;8.194;2023-03-01T08:21:50;0.60;99.90
18444;DHT22;9350;53.176;8.194;2023-03-01T08:24:16;0.60;99.90
18444;DHT22;9350;53.176;8.194;2023-03-01T08:26:43;0.70;99.90
18444;DHT22;9350;53.176;8.194;2023-03-01T08:29:11;0.70;99.90
18444;DHT22;9350;53.176;8.194;2023-03-01T08:31:39;0.90;99.90
18444;DHT22;9350;53.176;8.194;2023-03-01T08:34:08;0.80;99.90
18444;DHT22;9350;53.176;8.194;2023-03-01T08:36:37;0.90;99.90
18444;DHT22;9350;53.176;8.194;2023-03-01T08:39:05;0.90;99.90
18444;DHT22;9350;53.176;8.194;2023-03-01T08:41:32;1.00;99.90
18444;DHT22;9350;53.176;8.194;2023-03-01T08:43:59;1.10;99.90
18444;DHT22;9350;53.176;8.194;2023-03-01T08:46:28;1.10;99.90
18444;DHT22;9350;53.176;8.194;2023-03-01T08:48:55;1.10;99.90
18444;DHT22;9350;53.176;8.194;2023-03-01T08:51:23;1.10;99.90
18444;DHT22;9350;53.176;8.194;2023-03-01T08:53:50;1.10;99.90
18444;DHT22;9350;53.176;8.194;2023-03-01T08:56:18;1.20;99.90
18444;DHT22;9350;53.176;8.194;2023-03-01T08:58:45;1.30;99.90
18444;DHT22;9350;53.176;8.194;2023-03-01T09:01:14;1.30;99.90
18444;DHT22;9350;53.176;8.194;2023-03-01T09:03:43;1.40;99.90
18444;DHT22;9350;53.176;8.194;2023-03-01T09:06:11;1.50;99.90
18444;DHT22;9350;53.176;8.194;2023-03-01T09:08:39;1.50;99.90
18444;DHT22;9350;53.176;8.194;2023-03-01T09:11:07;1.60;99.90
18444;DHT22;9350;53.176;8.194;2023-03-01T09:13:35;1.60;99.90
18444;DHT22;9350;53.176;8.194;2023-03-01T09:16:05;1.70;99.90
18444;DHT22;9350;53.176;8.194;2023-03-01T09:18:32;1.70;99.90
18444;DHT22;9350;53.176;8.194;2023-03-01T09:21:05;1.80;99.90
18444;DHT22;9350;53.176;8.194;2023-03-01T09:23:32;1.80;99.90
18444;DHT22;9350;53.176;8.194;2023-03-01T09:25:59;1.80;99.90
18444;DHT22;9350;53.176;8.194;2023-03-01T09:28:26;1.90;99.90
18444;DHT22;9350;53.176;8.194;2023-03-01T09:30:52;1.90;99.90
18444;DHT22;9350;53.176;8.194;2023-03-01T09:33:19;1.90;99.90
18444;DHT22;9350;53.176;8.194;2023-03-01T09:35:46;2.00;99.90
18444;DHT22;9350;53.176;8.194;2023-03-01T09:38:14;2.10;99.90
18444;DHT22;9350;53.176;8.194;2023-03-01T09:40:44;2.10;99.90
18444;DHT22;9350;53.176;8.194;2023-03-01T09:43:18;2.10;99.90
18444;DHT22;9350;53.176;8.194;2023-03-01T09:45:49;2.20;99.90
18444;DHT22;9350;53.176;8.194;2023-03-01T09:48:20;2.30;99.90
18444;DHT22;9350;53.176;8.194;2023-03-01T09:50:49;2.40;99.90
18444;DHT22;9350;53.176;8.194;2023-03-01T09:53:19;2.30;99.90
18444;DHT22;9350;53.176;8.194;2023-03-01T09:55:51;2.40;99.90
18444;DHT22;9350;53.176;8.194;2023-03-01T09:58:41;2.40;99.90
18444;DHT22;9350;53.176;8.194;2023-03-01T10:01:26;2.50;99.90
18444;DHT22;9350;53.176;8.194;2023-03-01T10:04:05;2.50;99.90
18444;DHT22;9350;53.176;8.194;2023-03-01T10:06:39;2.60;99.90
18444;DHT22;9350;53.176;8.194;2023-03-01T10:09:11;2.70;99.90
18444;DHT22;9350;53.176;8.194;2023-03-01T10:11:43;2.70;99.90
18444;DHT22;9350;53.176;8.194;2023-03-01T10:14:18;2.70;99.90
18444;DHT22;9350;53.176;8.194;2023-03-01T10:16:51;2.80;99.90
18444;DHT22;9350;53.176;8.194;2023-03-01T10:19:24;2.80;99.90
18444;DHT22;9350;53.176;8.194;2023-03-01T10:21:52;2.80;99.90
18444;DHT22;9350;53.176;8.194;2023-03-01T10:24:20;3.00;99.90
18444;DHT22;9350;53.176;8.194;2023-03-01T10:26:54;3.00;99.90
18444;DHT22;9350;53.176;8.194;2023-03-01T10:29:25;3.00;99.90
18444;DHT22;9350;53.176;8.194;2023-03-01T10:31:54;3.20;99.90
18444;DHT22;9350;53.176;8.194;2023-03-01T10:34:25;3.20;99.90
18444;DHT22;9350;53.176;8.194;2023-03-01T10:36:56;3.30;99.90
18444;DHT22;9350;53.176;8.194;2023-03-01T10:39:26;3.30;99.90
18444;DHT22;9350;53.176;8.194;2023-03-01T10:41:58;3.50;99.90
18444;DHT22;9350;53.176;8.194;2023-03-01T10:44:43;3.50;99.90
18444;DHT22;9350;53.176;8.194;2023-03-01T10:47:19;3.50;99.90
18444;DHT22;9350;53.176;8.194;2023-03-01T10:49:55;3.70;99.90
18444;DHT22;9350;53.176;8.194;2023-03-01T10:52:25;3.80;99.90
18444;DHT22;9350;53.176;8.194;2023-03-01T10:54:56;3.80;99.90
18444;DHT22;9350;53.176;8.194;2023-03-01T10:57:35;3.90;99.90
18444;DHT22;9350;53.176;8.194;2023-03-01T11:00:24;3.90;99.90
18444;DHT22;9350;53.176;8.194;2023-03-01T11:03:02;3.90;99.90
18444;DHT22;9350;53.176;8.194;2023-03-01T11:05:29;3.90;99.90
18444;DHT22;9350;53.176;8.194;2023-03-01T11:08:00;4.00;99.90
18444;DHT22;9350;53.176;8.194;2023-03-01T11:10:31;4.00;99.90
18444;DHT22;9350;53.176;8.194;2023-03-01T11:13:13;4.10;99.90
18444;DHT22;9350;53.176;8.194;2023-03-01T11:15:41;4.20;99.90
18444;DHT22;9350;53.176;8.194;2023-03-01T11:18:19;4.30;99.90
18444;DHT22;9350;53.176;8.194;2023-03-01T11:20:46;4.20;99.90
18444;DHT22;9350;53.176;8.194;2023-03-01T11:23:15;4.30;99.90
18444;DHT22;9350;53.176;8.194;2023-03-01T11:25:48;4.30;99.90
18444;DHT22;9350;53.176;8.194;2023-03-01T11:28:17;4.30;99.90
18444;DHT22;9350;53.176;8.194;2023-03-01T11:30:50;4.30;99.90
18444;DHT22;9350;53.176;8.194;2023-03-01T11:33:28;4.40;99.90
18444;DHT22;9350;53.176;8.194;2023-03-01T11:36:02;4.40;99.90
18444;DHT22;9350;53.176;8.194;2023-03-01T11:38:34;4.50;99.90
18444;DHT22;9350;53.176;8.194;2023-03-01T11:41:06;4.60;99.90
18444;DHT22;9350;53.176;8.194;2023-03-01T11:43:37;4.60;99.90
18444;DHT22;9350;53.176;8.194;2023-03-01T11:46:27;4.60;99.90
18444;DHT22;9350;53.176;8.194;2023-03-01T11:49:06;4.70;99.90
18444;DHT22;9350;53.176;8.194;2023-03-01T11:51:48;4.80;99.90
18444;DHT22;9350;53.176;8.194;2023-03-01T11:54:27;4.90;99.90
18444;DHT22;9350;53.176;8.194;2023-03-01T11:57:01;4.80;99.90
18444;DHT22;9350;53.176;8.194;2023-03-01T11:59:49;4.90;99.90
18444;DHT22;9350;53.176;8.194;2023-03-01T12:02:32;4.90;99.90
18444;DHT22;9350;53.176;8.194;2023-03-01T12:05:28;5.00;99.90
18444;DHT22;9350;53.176;8.194;2023-03-01T12:08:06;5.10;99.90
18444;DHT22;9350;53.176;8.194;2023-03-01T12:10:42;5.00;99.90
18444;DHT22;9350;53.176;8.194;2023-03-01T12:13:35;5.00;99.90
18444;DHT22;9350;53.176;8.194;2023-03-01T12:16:15;5.10;99.90
18444;DHT22;9350;53.176;8.194;2023-03-01T12:19:04;5.20;99.90
18444;DHT22;9350;53.176;8.194;2023-03-01T12:21:42;5.10;99.90
18444;DHT22;9350;53.176;8.194;2023-03-01T12:24:39;5.30;99.90
18444;DHT22;9350;53.176;8.194;2023-03-01T12:27:26;5.40;99.90
18444;DHT22;9350;53.176;8.194;2023-03-01T12:30:01;5.40;99.90
18444;DHT22;9350;53.176;8.194;2023-03-01T12:32:43;5.30;99.90
18444;DHT22;9350;53.176;8.194;2023-03-01T12:35:41;5.40;99.90
18444;DHT22;9350;53.176;8.194;2023-03-01T12:38:33;5.50;99.90
18444;DHT22;9350;53.176;8.194;2023-03-01T12:41:17;5.50;99.90
18444;DHT22;9350;53.176;8.194;2023-03-01T12:43:57;5.50;99.90
18444;DHT22;9350;53.176;8.194;2023-03-01T12:46:35;5.60;99.90
18444;DHT22;9350;53.176;8.194;2023-03-01T12:49:08;5.50;99.90
18444;DHT22;9350;53.176;8.194;2023-03-01T12:51:39;5.60;99.90
18444;DHT22;9350;53.176;8.194;2023-03-01T12:54:14;5.90;99.90
18444;DHT22;9350;53.176;8.194;2023-03-01T12:56:41;6.00;99.90
18444;DHT22;9350;53.176;8.194;2023-03-01T12:59:15;6.10;99.90
18444;DHT22;9350;53.176;8.194;2023-03-01T13:01:51;6.20;99.90
18444;DHT22;9350;53.176;8.194;2023-03-01T13:04:26;6.40;99.90
18444;DHT22;9350;53.176;8.194;2023-03-01T13:07:04;6.40;99.90
18444;DHT22;9350;53.176;8.194;2023-03-01T13:09:37;6.50;99.90
18444;DHT22;9350;53.176;8.194;2023-03-01T13:12:42;6.50;99.90
18444;DHT22;9350;53.176;8.194;2023-03-01T13:15:28;6.50;99.90
18444;DHT22;9350;53.176;8.194;2023-03-01T13:17:58;6.50;99.90
18444;DHT22;9350;53.176;8.194;2023-03-01T13:20:29;6.60;99.90
18444;DHT22;9350;53.176;8.194;2023-03-01T13:23:13;6.60;99.90
18444;DHT22;9350;53.176;8.194;2023-03-01T13:26:14;6.60;99.90
18444;DHT22;9350;53.176;8.194;2023-03-01T13:28:47;6.60;99.90
18444;DHT22;9350;53.176;8.194;2023-03-01T13:34:45;6.70;99.90
18444;DHT22;9350;53.176;8.194;2023-03-01T13:37:32;6.50;99.90
18444;DHT22;9350;53.176;8.194;2023-03-01T13:40:07;6.30;99.90
18444;DHT22;9350;53.176;8.194;2023-03-01T13:42:53;6.30;99.90
18444;DHT22;9350;53.176;8.194;2023-03-01T13:45:23;6.30;99.90
18444;DHT22;9350;53.176;8.194;2023-03-01T13:47:54;6.30;99.90
18444;DHT22;9350;53.176;8.194;2023-03-01T13:50:27;6.30;99.90
18444;DHT22;9350;53.176;8.194;2023-03-01T13:52:56;6.30;99.90
18444;DHT22;9350;53.176;8.194;2023-03-01T13:55:30;6.20;99.90
18444;DHT22;9350;53.176;8.194;2023-03-01T13:58:00;6.30;99.90
18444;DHT22;9350;53.176;8.194;2023-03-01T14:00:34;6.20;99.90
18444;DHT22;9350;53.176;8.194;2023-03-01T14:03:03;6.20;99.90
18444;DHT22;9350;53.176;8.194;2023-03-01T14:05:32;6.20;99.90
18444;DHT22;9350;53.176;8.194;2023-03-01T14:07:59;6.40;99.90
18444;DHT22;9350;53.176;8.194;2023-03-01T14:10:31;6.50;99.90
18444;DHT22;9350;53.176;8.194;2023-03-01T14:13:12;6.50;99.90
18444;DHT22;9350;53.176;8.194;2023-03-01T14:15:50;6.50;99.90
18444;DHT22;9350;53.176;8.194;2023-03-01T14:18:23;6.50;99.90
18444;DHT22;9350;53.176;8.194;2023-03-01T14:20:52;6.60;99.90
18444;DHT22;9350;53.176;8.194;2023-03-01T14:23:21;6.70;99.90
18444;DHT22;9350;53.176;8.194;2023-03-01T14:25:50;6.70;99.90
18444;DHT22;9350;53.176;8.194;2023-03-01T14:28:18;6.70;99.90
18444;DHT22;9350;53.176;8.194;2023-03-01T14:30:48;6.70;99.90
18444;DHT22;9350;53.176;8.194;2023-03-01T14:33:21;6.70;99.90
18444;DHT22;9350;53.176;8.194;2023-03-01T14:35:55;6.90;99.90
18444;DHT22;9350;53.176;8.194;2023-03-01T14:38:27;6.80;99.90
18444;DHT22;9350;53.176;8.194;2023-03-01T14:40:57;6.70;99.90
18444;DHT22;9350;53.176;8.194;2023-03-01T14:43:25;6.80;99.90
18444;DHT22;9350;53.176;8.194;2023-03-01T14:45:52;6.80;99.90
18444;DHT22;9350;53.176;8.194;2023-03-01T14:48:19;6.80;99.90
18444;DHT22;9350;53.176;8.194;2023-03-01T14:50:46;6.80;99.90
18444;DHT22;9350;53.176;8.194;2023-03-01T14:53:18;6.80;99.90
18444;DHT22;9350;53.176;8.194;2023-03-01T14:55:47;6.70;99.90
18444;DHT22;9350;53.176;8.194;2023-03-01T14:58:18;6.70;99.90
18444;DHT22;9350;53.176;8.194;2023-03-01T15:00:49;6.70;99.90
18444;DHT22;9350;53.176;8.194;2023-03-01T15:03:23;6.80;99.90
18444;DHT22;9350;53.176;8.194;2023-03-01T15:05:50;6.60;99.90
18444;DHT22;9350;53.176;8.194;2023-03-01T15:08:24;6.50;99.90
18444;DHT22;9350;53.176;8.194;2023-03-01T15:11:01;6.50;99.90
18444;DHT22;9350;53.176;8.194;2023-03-01T15:13:31;6.60;99.90
18444;DHT22;9350;53.176;8.194;2023-03-01T15:16:04;6.60;99.90
18444;DHT22;9350;53.176;8.194;2023-03-01T15:18:32;6.60;99.90
18444;DHT22;9350;53.176;8.194;2023-03-01T15:21:06;6.60;99.90
18444;DHT22;9350;53.176;8.194;2023-03-01T15:23:37;6.60;99.90
18444;DHT22;9350;53.176;8.194;2023-03-01T15:26:04;6.70;99.90
18444;DHT22;9350;53.176;8.194;2023-03-01T15:28:33;6.60;99.90
18444;DHT22;9350;53.176;8.194;2023-03-01T15:31:03;6.70;99.90
18444;DHT22;9350;53.176;8.194;2023-03-01T15:33:33;6.60;99.90
18444;DHT22;9350;53.176;8.194;2023-03-01T15:36:02;6.50;99.90
18444;DHT22;9350;53.176;8.194;2023-03-01T15:38:36;6.50;99.90
18444;DHT22;9350;53.176;8.194;2023-03-01T15:41:23;6.50;99.90
18444;DHT22;9350;53.176;8.194;2023-03-01T15:43:51;6.60;99.90
18444;DHT22;9350;53.176;8.194;2023-03-01T15:46:28;6.60;99.90
18444;DHT22;9350;53.176;8.194;2023-03-01T15:48:58;6.60;99.90
18444;DHT22;9350;53.176;8.194;2023-03-01T15:51:34;6.60;99.90
18444;DHT22;9350;53.176;8.194;2023-03-01T15:54:06;6.60;99.90
18444;DHT22;9350;53.176;8.194;2023-03-01T15:56:33;6.60;99.90
18444;DHT22;9350;53.176;8.194;2023-03-01T15:59:02;6.60;99.90
18444;DHT22;9350;53.176;8.194;2023-03-01T16:01:30;6.50;99.90
18444;DHT22;9350;53.176;8.194;2023-03-01T16:03:59;6.50;99.90
18444;DHT22;9350;53.176;8.194;2023-03-01T16:06:26;6.40;99.90
18444;DHT22;9350;53.176;8.194;2023-03-01T16:08:53;6.50;99.90
18444;DHT22;9350;53.176;8.194;2023-03-01T16:11:21;6.50;99.90
18444;DHT22;9350;53.176;8.194;2023-03-01T16:13:48;6.40;99.90
18444;DHT22;9350;53.176;8.194;2023-03-01T16:16:16;6.40;99.90
18444;DHT22;9350;53.176;8.194;2023-03-01T16:18:44;6.30;99.90
18444;DHT22;9350;53.176;8.194;2023-03-01T16:21:18;6.30;99.90